sensor_id;sensor_type;location;lat;lon;timestamp;P1;durP1;ratioP1;P2;durP2;ratioP2
25567;SDS011;13455;51.480;7.594;2023-04-03T00:00:41;6.22;;;3.00;;
25567;SDS011;13455;51.480;7.594;2023-04-03T00:03:07;7.53;;;3.10;;
25567;SDS011;13455;51.480;7.594;2023-04-03T00:05:33;6.60;;;2.87;;
25567;SDS011;13455;51.480;7.594;2023-04-03T00:07:59;6.20;;;3.17;;
25567;SDS011;13455;51.480;7.594;2023-04-03T00:10:26;5.68;;;2.90;;
25567;SDS011;13455;51.480;7.594;2023-04-03T00:12:52;5.80;;;3.10;;
25567;SDS011;13455;51.480;7.594;2023-04-03T00:15:18;6.28;;;3.08;;
25567;SDS011;13455;51.480;7.594;2023-04-03T00:17:44;7.00;;;3.15;;
25567;SDS011;13455;51.480;7.594;2023-04-03T00:20:10;7.13;;;3.00;;
25567;SDS011;13455;51.480;7.594;2023-04-03T00:22:36;7.35;;;3.15;;
25567;SDS011;13455;51.480;7.594;2023-04-03T00:25:03;9.18;;;2.90;;
25567;SDS011;13455;51.480;7.594;2023-04-03T00:27:29;7.63;;;3.08;;
25567;SDS011;13455;51.480;7.594;2023-04-03T00:29:55;7.20;;;3.20;;
25567;SDS011;13455;51.480;7.594;2023-04-03T00:32:21;7.72;;;3.22;;
25567;SDS011;13455;51.480;7.594;2023-04-03T00:34:47;6.18;;;3.25;;
25567;SDS011;13455;51.480;7.594;2023-04-03T00:37:13;7.72;;;2.88;;
25567;SDS011;13455;51.480;7.594;2023-04-03T00:39:38;5.85;;;2.70;;
25567;SDS011;13455;51.480;7.594;2023-04-03T00:42:04;6.83;;;2.70;;
25567;SDS011;13455;51.480;7.594;2023-04-03T00:46:59;6.90;;;2.70;;
25567;SDS011;13455;51.480;7.594;2023-04-03T00:49:26;6.75;;;2.60;;
25567;SDS011;13455;51.480;7.594;2023-04-03T00:51:52;5.72;;;2.42;;
25567;SDS011;13455;51.480;7.594;2023-04-03T00:54:18;6.25;;;2.30;;
25567;SDS011;13455;51.480;7.594;2023-04-03T00:56:44;7.10;;;2.53;;
25567;SDS011;13455;51.480;7.594;2023-04-03T00:59:15;5.90;;;2.38;;
25567;SDS011;13455;51.480;7.594;2023-04-03T01:01:47;6.73;;;2.47;;
25567;SDS011;13455;51.480;7.594;2023-04-03T01:04:29;6.80;;;2.57;;
25567;SDS011;13455;51.480;7.594;2023-04-03T01:06:57;5.55;;;2.10;;
25567;SDS011;13455;51.480;7.594;2023-04-03T01:09:29;5.80;;;2.20;;
25567;SDS011;13455;51.480;7.594;2023-04-03T01:12:13;4.97;;;2.00;;
25567;SDS011;13455;51.480;7.594;2023-04-03T01:14:48;5.70;;;2.00;;
25567;SDS011;13455;51.480;7.594;2023-04-03T01:25:33;6.53;;;2.00;;
25567;SDS011;13455;51.480;7.594;2023-04-03T01:28:01;6.85;;;1.90;;
25567;SDS011;13455;51.480;7.594;2023-04-03T01:30:31;6.68;;;1.90;;
25567;SDS011;13455;51.480;7.594;2023-04-03T01:33:02;6.60;;;2.00;;
25567;SDS011;13455;51.480;7.594;2023-04-03T01:35:28;6.05;;;1.90;;
25567;SDS011;13455;51.480;7.594;2023-04-03T01:37:53;7.07;;;2.20;;
25567;SDS011;13455;51.480;7.594;2023-04-03T01:40:19;5.68;;;2.13;;
25567;SDS011;13455;51.480;7.594;2023-04-03T01:42:45;6.33;;;1.90;;
25567;SDS011;13455;51.480;7.594;2023-04-03T01:45:11;5.70;;;1.90;;
25567;SDS011;13455;51.480;7.594;2023-04-03T01:47:36;5.80;;;1.90;;
25567;SDS011;13455;51.480;7.594;2023-04-03T01:50:02;6.50;;;2.13;;
25567;SDS011;13455;51.480;7.594;2023-04-03T01:52:28;4.43;;;1.90;;
25567;SDS011;13455;51.480;7.594;2023-04-03T01:54:55;5.65;;;2.00;;
25567;SDS011;13455;51.480;7.594;2023-04-03T01:57:20;6.32;;;1.90;;
25567;SDS011;13455;51.480;7.594;2023-04-03T01:59:46;5.13;;;1.80;;
25567;SDS011;13455;51.480;7.594;2023-04-03T02:02:12;5.97;;;1.97;;
25567;SDS011;13455;51.480;7.594;2023-04-03T02:04:39;5.97;;;2.00;;
25567;SDS011;13455;51.480;7.594;2023-04-03T02:07:05;4.90;;;1.92;;
25567;SDS011;13455;51.480;7.594;2023-04-03T02:09:31;7.25;;;2.00;;
25567;SDS011;13455;51.480;7.594;2023-04-03T02:11:57;6.03;;;1.87;;
25567;SDS011;13455;51.480;7.594;2023-04-03T02:14:22;7.20;;;2.10;;
25567;SDS011;13455;51.480;7.594;2023-04-03T02:16:48;7.40;;;2.00;;
25567;SDS011;13455;51.480;7.594;2023-04-03T02:19:14;7.57;;;2.20;;
25567;SDS011;13455;51.480;7.594;2023-04-03T02:21:40;6.55;;;1.88;;
25567;SDS011;13455;51.480;7.594;2023-04-03T02:24:06;8.32;;;1.95;;
25567;SDS011;13455;51.480;7.594;2023-04-03T02:26:32;6.03;;;2.03;;
25567;SDS011;13455;51.480;7.594;2023-04-03T02:28:57;6.33;;;1.90;;
25567;SDS011;13455;51.480;7.594;2023-04-03T02:31:23;5.97;;;1.83;;
25567;SDS011;13455;51.480;7.594;2023-04-03T02:33:49;5.68;;;1.92;;
25567;SDS011;13455;51.480;7.594;2023-04-03T02:36:15;6.45;;;2.00;;
25567;SDS011;13455;51.480;7.594;2023-04-03T02:38:40;7.03;;;2.05;;
25567;SDS011;13455;51.480;7.594;2023-04-03T02:41:07;6.38;;;2.15;;
25567;SDS011;13455;51.480;7.594;2023-04-03T02:43:35;6.07;;;2.08;;
25567;SDS011;13455;51.480;7.594;2023-04-03T02:46:01;6.20;;;2.15;;
25567;SDS011;13455;51.480;7.594;2023-04-03T02:48:27;7.82;;;2.10;;
25567;SDS011;13455;51.480;7.594;2023-04-03T02:50:53;5.47;;;1.95;;
25567;SDS011;13455;51.480;7.594;2023-04-03T02:53:19;7.20;;;2.10;;
25567;SDS011;13455;51.480;7.594;2023-04-03T02:55:45;5.65;;;1.90;;
25567;SDS011;13455;51.480;7.594;2023-04-03T02:58:11;7.90;;;2.00;;
25567;SDS011;13455;51.480;7.594;2023-04-03T03:00:37;9.07;;;2.13;;
25567;SDS011;13455;51.480;7.594;2023-04-03T03:03:03;6.93;;;2.08;;
25567;SDS011;13455;51.480;7.594;2023-04-03T03:05:29;7.43;;;2.00;;
25567;SDS011;13455;51.480;7.594;2023-04-03T03:07:55;5.80;;;2.15;;
25567;SDS011;13455;51.480;7.594;2023-04-03T03:10:22;9.05;;;2.20;;
25567;SDS011;13455;51.480;7.594;2023-04-03T03:12:48;6.43;;;2.00;;
25567;SDS011;13455;51.480;7.594;2023-04-03T03:15:14;9.07;;;2.40;;
25567;SDS011;13455;51.480;7.594;2023-04-03T03:17:41;5.47;;;2.03;;
25567;SDS011;13455;51.480;7.594;2023-04-03T03:20:07;6.00;;;2.00;;
25567;SDS011;13455;51.480;7.594;2023-04-03T03:22:34;6.70;;;2.20;;
25567;SDS011;13455;51.480;7.594;2023-04-03T03:25:00;5.97;;;1.98;;
25567;SDS011;13455;51.480;7.594;2023-04-03T03:27:27;5.88;;;2.10;;
25567;SDS011;13455;51.480;7.594;2023-04-03T03:29:52;6.17;;;2.13;;
25567;SDS011;13455;51.480;7.594;2023-04-03T03:32:18;6.30;;;2.20;;
25567;SDS011;13455;51.480;7.594;2023-04-03T03:34:44;6.53;;;2.10;;
25567;SDS011;13455;51.480;7.594;2023-04-03T03:37:10;7.40;;;2.50;;
25567;SDS011;13455;51.480;7.594;2023-04-03T03:39:36;7.80;;;2.50;;
25567;SDS011;13455;51.480;7.594;2023-04-03T03:42:02;6.23;;;2.00;;
25567;SDS011;13455;51.480;7.594;2023-04-03T03:44:28;9.82;;;2.60;;
25567;SDS011;13455;51.480;7.594;2023-04-03T03:46:54;7.47;;;2.40;;
25567;SDS011;13455;51.480;7.594;2023-04-03T03:49:20;7.28;;;2.20;;
25567;SDS011;13455;51.480;7.594;2023-04-03T03:51:46;7.83;;;2.20;;
25567;SDS011;13455;51.480;7.594;2023-04-03T03:54:11;9.40;;;2.50;;
25567;SDS011;13455;51.480;7.594;2023-04-03T03:56:38;7.40;;;2.45;;
25567;SDS011;13455;51.480;7.594;2023-04-03T03:59:04;7.57;;;2.30;;
25567;SDS011;13455;51.480;7.594;2023-04-03T04:01:30;8.98;;;2.50;;
25567;SDS011;13455;51.480;7.594;2023-04-03T04:03:56;8.70;;;2.35;;
25567;SDS011;13455;51.480;7.594;2023-04-03T04:06:22;7.68;;;2.42;;
25567;SDS011;13455;51.480;7.594;2023-04-03T04:08:48;7.43;;;2.25;;
25567;SDS011;13455;51.480;7.594;2023-04-03T04:11:13;7.57;;;2.30;;
25567;SDS011;13455;51.480;7.594;2023-04-03T04:13:39;6.53;;;2.40;;
25567;SDS011;13455;51.480;7.594;2023-04-03T04:16:05;7.28;;;2.30;;
25567;SDS011;13455;51.480;7.594;2023-04-03T04:18:32;5.80;;;2.10;;
25567;SDS011;13455;51.480;7.594;2023-04-03T04:20:57;8.70;;;2.37;;
25567;SDS011;13455;51.480;7.594;2023-04-03T04:23:23;8.93;;;2.47;;
25567;SDS011;13455;51.480;7.594;2023-04-03T04:25:49;8.13;;;2.53;;
25567;SDS011;13455;51.480;7.594;2023-04-03T04:28:16;8.45;;;2.40;;
25567;SDS011;13455;51.480;7.594;2023-04-03T04:30:42;6.38;;;2.20;;
25567;SDS011;13455;51.480;7.594;2023-04-03T04:33:08;8.45;;;2.28;;
25567;SDS011;13455;51.480;7.594;2023-04-03T04:35:34;8.85;;;2.35;;
25567;SDS011;13455;51.480;7.594;2023-04-03T04:38:00;6.82;;;2.30;;
25567;SDS011;13455;51.480;7.594;2023-04-03T04:40:27;7.25;;;2.50;;
25567;SDS011;13455;51.480;7.594;2023-04-03T04:42:53;7.85;;;2.40;;
25567;SDS011;13455;51.480;7.594;2023-04-03T04:45:19;8.82;;;2.20;;
25567;SDS011;13455;51.480;7.594;2023-04-03T04:47:45;6.47;;;2.40;;
25567;SDS011;13455;51.480;7.594;2023-04-03T04:50:11;8.18;;;2.53;;
25567;SDS011;13455;51.480;7.594;2023-04-03T04:52:38;8.52;;;2.50;;
25567;SDS011;13455;51.480;7.594;2023-04-03T04:55:04;7.22;;;2.42;;
25567;SDS011;13455;51.480;7.594;2023-04-03T04:57:30;10.65;;;2.83;;
25567;SDS011;13455;51.480;7.594;2023-04-03T04:59:56;9.52;;;2.50;;
25567;SDS011;13455;51.480;7.594;2023-04-03T05:02:22;8.02;;;2.58;;
25567;SDS011;13455;51.480;7.594;2023-04-03T05:04:48;7.65;;;2.80;;
25567;SDS011;13455;51.480;7.594;2023-04-03T05:07:15;7.38;;;2.65;;
25567;SDS011;13455;51.480;7.594;2023-04-03T05:09:41;8.13;;;2.70;;
25567;SDS011;13455;51.480;7.594;2023-04-03T05:12:07;8.80;;;2.70;;
25567;SDS011;13455;51.480;7.594;2023-04-03T05:14:32;9.90;;;2.87;;
25567;SDS011;13455;51.480;7.594;2023-04-03T05:16:58;6.88;;;2.70;;
25567;SDS011;13455;51.480;7.594;2023-04-03T05:19:24;8.52;;;2.67;;
25567;SDS011;13455;51.480;7.594;2023-04-03T05:21:50;6.80;;;2.60;;
25567;SDS011;13455;51.480;7.594;2023-04-03T05:24:16;7.72;;;2.35;;
25567;SDS011;13455;51.480;7.594;2023-04-03T05:26:42;8.20;;;2.60;;
25567;SDS011;13455;51.480;7.594;2023-04-03T05:29:08;8.45;;;2.90;;
25567;SDS011;13455;51.480;7.594;2023-04-03T05:31:35;9.95;;;3.15;;
25567;SDS011;13455;51.480;7.594;2023-04-03T05:34:01;6.90;;;2.50;;
25567;SDS011;13455;51.480;7.594;2023-04-03T05:36:27;7.03;;;2.78;;
25567;SDS011;13455;51.480;7.594;2023-04-03T05:38:53;8.82;;;2.85;;
25567;SDS011;13455;51.480;7.594;2023-04-03T05:41:21;7.95;;;2.80;;
25567;SDS011;13455;51.480;7.594;2023-04-03T05:43:47;6.78;;;2.60;;
25567;SDS011;13455;51.480;7.594;2023-04-03T05:46:14;7.97;;;2.70;;
25567;SDS011;13455;51.480;7.594;2023-04-03T05:48:40;8.67;;;2.57;;
25567;SDS011;13455;51.480;7.594;2023-04-03T05:51:07;8.35;;;2.67;;
25567;SDS011;13455;51.480;7.594;2023-04-03T05:53:34;7.13;;;2.55;;
25567;SDS011;13455;51.480;7.594;2023-04-03T05:56:02;7.68;;;2.40;;
25567;SDS011;13455;51.480;7.594;2023-04-03T05:58:28;7.60;;;2.70;;
25567;SDS011;13455;51.480;7.594;2023-04-03T06:00:54;8.82;;;2.80;;
25567;SDS011;13455;51.480;7.594;2023-04-03T06:03:20;9.75;;;3.10;;
25567;SDS011;13455;51.480;7.594;2023-04-03T06:05:46;8.15;;;2.83;;
25567;SDS011;13455;51.480;7.594;2023-04-03T06:08:12;8.07;;;2.78;;
25567;SDS011;13455;51.480;7.594;2023-04-03T06:10:39;11.32;;;2.80;;
25567;SDS011;13455;51.480;7.594;2023-04-03T06:13:05;7.80;;;2.88;;
25567;SDS011;13455;51.480;7.594;2023-04-03T06:15:32;9.85;;;2.80;;
25567;SDS011;13455;51.480;7.594;2023-04-03T06:17:58;10.63;;;3.00;;
25567;SDS011;13455;51.480;7.594;2023-04-03T06:20:25;9.27;;;2.80;;
25567;SDS011;13455;51.480;7.594;2023-04-03T06:22:51;8.30;;;3.00;;
25567;SDS011;13455;51.480;7.594;2023-04-03T06:25:17;9.70;;;3.10;;
25567;SDS011;13455;51.480;7.594;2023-04-03T06:27:44;9.48;;;3.00;;
25567;SDS011;13455;51.480;7.594;2023-04-03T06:30:10;9.70;;;2.58;;
25567;SDS011;13455;51.480;7.594;2023-04-03T06:32:37;10.50;;;2.72;;
25567;SDS011;13455;51.480;7.594;2023-04-03T06:35:03;10.35;;;2.60;;
25567;SDS011;13455;51.480;7.594;2023-04-03T06:37:30;8.27;;;2.83;;
25567;SDS011;13455;51.480;7.594;2023-04-03T06:39:57;9.20;;;2.83;;
25567;SDS011;13455;51.480;7.594;2023-04-03T06:42:25;9.07;;;2.60;;
25567;SDS011;13455;51.480;7.594;2023-04-03T06:44:51;7.57;;;2.53;;
25567;SDS011;13455;51.480;7.594;2023-04-03T06:47:17;9.05;;;2.70;;
25567;SDS011;13455;51.480;7.594;2023-04-03T06:49:43;6.80;;;2.40;;
25567;SDS011;13455;51.480;7.594;2023-04-03T06:52:09;11.00;;;2.72;;
25567;SDS011;13455;51.480;7.594;2023-04-03T06:54:37;9.57;;;2.60;;
25567;SDS011;13455;51.480;7.594;2023-04-03T06:57:03;10.75;;;2.35;;
25567;SDS011;13455;51.480;7.594;2023-04-03T06:59:30;10.13;;;2.58;;
25567;SDS011;13455;51.480;7.594;2023-04-03T07:01:56;7.10;;;2.50;;
25567;SDS011;13455;51.480;7.594;2023-04-03T07:04:23;7.43;;;2.22;;
25567;SDS011;13455;51.480;7.594;2023-04-03T07:06:49;9.38;;;2.50;;
25567;SDS011;13455;51.480;7.594;2023-04-03T07:09:15;9.00;;;2.67;;
25567;SDS011;13455;51.480;7.594;2023-04-03T07:11:41;7.60;;;2.33;;
25567;SDS011;13455;51.480;7.594;2023-04-03T07:14:07;9.68;;;2.63;;
25567;SDS011;13455;51.480;7.594;2023-04-03T07:16:34;8.83;;;2.53;;
25567;SDS011;13455;51.480;7.594;2023-04-03T07:19:00;8.50;;;2.28;;
25567;SDS011;13455;51.480;7.594;2023-04-03T07:21:27;6.23;;;2.00;;
25567;SDS011;13455;51.480;7.594;2023-04-03T07:23:53;10.82;;;2.60;;
25567;SDS011;13455;51.480;7.594;2023-04-03T07:26:19;7.93;;;2.22;;
25567;SDS011;13455;51.480;7.594;2023-04-03T07:28:46;8.40;;;2.42;;
25567;SDS011;13455;51.480;7.594;2023-04-03T07:31:13;8.88;;;2.47;;
25567;SDS011;13455;51.480;7.594;2023-04-03T07:33:39;7.90;;;2.45;;
25567;SDS011;13455;51.480;7.594;2023-04-03T07:36:06;8.80;;;2.47;;
25567;SDS011;13455;51.480;7.594;2023-04-03T07:38:32;8.40;;;2.30;;
25567;SDS011;13455;51.480;7.594;2023-04-03T07:40:58;8.87;;;2.30;;
25567;SDS011;13455;51.480;7.594;2023-04-03T07:43:25;9.13;;;2.53;;
25567;SDS011;13455;51.480;7.594;2023-04-03T07:45:51;10.75;;;2.50;;
25567;SDS011;13455;51.480;7.594;2023-04-03T07:48:17;6.20;;;2.30;;
25567;SDS011;13455;51.480;7.594;2023-04-03T07:50:44;5.83;;;2.30;;
25567;SDS011;13455;51.480;7.594;2023-04-03T07:53:09;7.90;;;2.22;;
25567;SDS011;13455;51.480;7.594;2023-04-03T07:55:36;8.60;;;2.10;;
25567;SDS011;13455;51.480;7.594;2023-04-03T07:58:08;6.68;;;2.13;;
25567;SDS011;13455;51.480;7.594;2023-04-03T08:00:34;7.93;;;2.20;;
25567;SDS011;13455;51.480;7.594;2023-04-03T08:03:00;7.13;;;1.95;;
25567;SDS011;13455;51.480;7.594;2023-04-03T08:05:26;7.80;;;2.05;;
25567;SDS011;13455;51.480;7.594;2023-04-03T08:07:52;6.17;;;2.03;;
25567;SDS011;13455;51.480;7.594;2023-04-03T08:10:17;8.23;;;2.10;;
25567;SDS011;13455;51.480;7.594;2023-04-03T08:12:45;6.73;;;1.93;;
25567;SDS011;13455;51.480;7.594;2023-04-03T08:15:13;9.00;;;2.13;;
25567;SDS011;13455;51.480;7.594;2023-04-03T08:17:38;7.45;;;2.25;;
25567;SDS011;13455;51.480;7.594;2023-04-03T08:20:05;5.83;;;2.00;;
25567;SDS011;13455;51.480;7.594;2023-04-03T08:22:32;7.97;;;1.90;;
25567;SDS011;13455;51.480;7.594;2023-04-03T08:24:58;8.38;;;2.13;;
25567;SDS011;13455;51.480;7.594;2023-04-03T08:27:24;6.18;;;2.00;;
25567;SDS011;13455;51.480;7.594;2023-04-03T08:29:51;6.43;;;2.20;;
25567;SDS011;13455;51.480;7.594;2023-04-03T08:32:17;8.20;;;2.40;;
25567;SDS011;13455;51.480;7.594;2023-04-03T08:34:44;7.28;;;2.08;;
25567;SDS011;13455;51.480;7.594;2023-04-03T08:37:09;5.97;;;1.80;;
25567;SDS011;13455;51.480;7.594;2023-04-03T08:39:36;7.30;;;1.92;;
25567;SDS011;13455;51.480;7.594;2023-04-03T08:42:03;5.93;;;1.80;;
25567;SDS011;13455;51.480;7.594;2023-04-03T08:44:39;7.30;;;2.00;;
25567;SDS011;13455;51.480;7.594;2023-04-03T08:50:33;6.15;;;1.90;;
25567;SDS011;13455;51.480;7.594;2023-04-03T08:53:01;6.27;;;1.97;;
25567;SDS011;13455;51.480;7.594;2023-04-03T08:55:33;8.98;;;2.28;;
25567;SDS011;13455;51.480;7.594;2023-04-03T08:58:18;7.32;;;2.05;;
25567;SDS011;13455;51.480;7.594;2023-04-03T09:00:51;7.55;;;1.85;;
25567;SDS011;13455;51.480;7.594;2023-04-03T09:03:32;7.28;;;2.03;;
25567;SDS011;13455;51.480;7.594;2023-04-03T09:11:27;6.50;;;2.08;;
25567;SDS011;13455;51.480;7.594;2023-04-03T09:21:58;6.43;;;1.90;;
25567;SDS011;13455;51.480;7.594;2023-04-03T09:24:27;7.30;;;1.90;;
25567;SDS011;13455;51.480;7.594;2023-04-03T09:26:58;6.20;;;1.75;;
25567;SDS011;13455;51.480;7.594;2023-04-03T09:29:27;6.03;;;1.87;;
25567;SDS011;13455;51.480;7.594;2023-04-03T09:31:56;6.72;;;1.70;;
25567;SDS011;13455;51.480;7.594;2023-04-03T09:37:04;5.87;;;1.80;;
25567;SDS011;13455;51.480;7.594;2023-04-03T09:39:53;5.77;;;1.80;;
25567;SDS011;13455;51.480;7.594;2023-04-03T09:42:21;6.03;;;1.60;;
25567;SDS011;13455;51.480;7.594;2023-04-03T09:52:42;3.95;;;1.42;;
25567;SDS011;13455;51.480;7.594;2023-04-03T09:55:19;5.60;;;1.43;;
25567;SDS011;13455;51.480;7.594;2023-04-03T09:57:52;6.00;;;1.58;;
25567;SDS011;13455;51.480;7.594;2023-04-03T10:00:20;4.57;;;1.27;;
25567;SDS011;13455;51.480;7.594;2023-04-03T10:02:46;6.28;;;1.73;;
25567;SDS011;13455;51.480;7.594;2023-04-03T10:07:59;4.78;;;1.42;;
25567;SDS011;13455;51.480;7.594;2023-04-03T10:10:36;5.55;;;1.50;;
25567;SDS011;13455;51.480;7.594;2023-04-03T10:13:07;3.70;;;1.20;;
25567;SDS011;13455;51.480;7.594;2023-04-03T10:15:41;5.13;;;1.50;;
25567;SDS011;13455;51.480;7.594;2023-04-03T10:20:57;2.77;;;1.00;;
25567;SDS011;13455;51.480;7.594;2023-04-03T10:28:39;3.10;;;1.00;;
25567;SDS011;13455;51.480;7.594;2023-04-03T10:31:17;2.08;;;0.90;;
25567;SDS011;13455;51.480;7.594;2023-04-03T10:34:21;3.63;;;1.10;;
25567;SDS011;13455;51.480;7.594;2023-04-03T10:40:15;3.28;;;1.00;;
25567;SDS011;13455;51.480;7.594;2023-04-03T10:48:47;2.47;;;0.77;;
25567;SDS011;13455;51.480;7.594;2023-04-03T10:56:42;3.33;;;1.00;;
25567;SDS011;13455;51.480;7.594;2023-04-03T11:01:43;4.30;;;1.20;;
25567;SDS011;13455;51.480;7.594;2023-04-03T11:04:11;3.90;;;1.17;;
25567;SDS011;13455;51.480;7.594;2023-04-03T11:06:39;3.70;;;1.10;;
25567;SDS011;13455;51.480;7.594;2023-04-03T11:11:55;5.20;;;1.10;;
25567;SDS011;13455;51.480;7.594;2023-04-03T11:14:32;3.08;;;0.90;;
25567;SDS011;13455;51.480;7.594;2023-04-03T11:22:45;3.97;;;1.13;;
25567;SDS011;13455;51.480;7.594;2023-04-03T11:25:21;3.57;;;1.10;;
25567;SDS011;13455;51.480;7.594;2023-04-03T11:39:25;3.00;;;1.13;;
25567;SDS011;13455;51.480;7.594;2023-04-03T11:42:42;2.55;;;0.88;;
25567;SDS011;13455;51.480;7.594;2023-04-03T11:44:48;4.07;;;1.17;;
25567;SDS011;13455;51.480;7.594;2023-04-03T11:47:43;3.17;;;1.03;;
25567;SDS011;13455;51.480;7.594;2023-04-03T12:05:53;4.38;;;1.30;;
25567;SDS011;13455;51.480;7.594;2023-04-03T12:08:26;3.85;;;1.00;;
25567;SDS011;13455;51.480;7.594;2023-04-03T12:16:10;3.13;;;0.95;;
25567;SDS011;13455;51.480;7.594;2023-04-03T12:18:54;2.97;;;1.00;;
25567;SDS011;13455;51.480;7.594;2023-04-03T12:22:05;3.25;;;1.00;;
25567;SDS011;13455;51.480;7.594;2023-04-03T12:34:41;3.55;;;1.17;;
25567;SDS011;13455;51.480;7.594;2023-04-03T12:40:05;3.97;;;1.10;;
25567;SDS011;13455;51.480;7.594;2023-04-03T12:45:52;3.55;;;1.25;;
25567;SDS011;13455;51.480;7.594;2023-04-03T12:48:37;4.10;;;1.00;;
25567;SDS011;13455;51.480;7.594;2023-04-03T12:51:09;3.10;;;1.00;;
25567;SDS011;13455;51.480;7.594;2023-04-03T12:53:44;3.38;;;1.23;;
25567;SDS011;13455;51.480;7.594;2023-04-03T12:56:21;3.60;;;1.20;;
25567;SDS011;13455;51.480;7.594;2023-04-03T12:58:47;4.93;;;1.00;;
25567;SDS011;13455;51.480;7.594;2023-04-03T13:01:16;4.07;;;1.05;;
25567;SDS011;13455;51.480;7.594;2023-04-03T13:03:47;3.13;;;1.00;;
25567;SDS011;13455;51.480;7.594;2023-04-03T13:06:16;2.60;;;1.00;;
25567;SDS011;13455;51.480;7.594;2023-04-03T13:08:55;2.78;;;1.08;;
25567;SDS011;13455;51.480;7.594;2023-04-03T13:11:39;4.03;;;1.20;;
25567;SDS011;13455;51.480;7.594;2023-04-03T13:14:17;3.80;;;1.20;;
25567;SDS011;13455;51.480;7.594;2023-04-03T13:16:57;2.70;;;0.95;;
25567;SDS011;13455;51.480;7.594;2023-04-03T13:19:24;3.83;;;1.02;;
25567;SDS011;13455;51.480;7.594;2023-04-03T13:22:34;3.17;;;1.00;;
25567;SDS011;13455;51.480;7.594;2023-04-03T13:24:40;3.40;;;1.10;;
25567;SDS011;13455;51.480;7.594;2023-04-03T13:27:07;4.13;;;1.10;;
25567;SDS011;13455;51.480;7.594;2023-04-03T13:29:36;3.47;;;1.10;;
25567;SDS011;13455;51.480;7.594;2023-04-03T13:32:03;2.87;;;1.20;;
25567;SDS011;13455;51.480;7.594;2023-04-03T13:34:42;6.10;;;1.10;;
25567;SDS011;13455;51.480;7.594;2023-04-03T13:37:26;3.78;;;1.00;;
25567;SDS011;13455;51.480;7.594;2023-04-03T13:42:34;2.90;;;1.10;;
25567;SDS011;13455;51.480;7.594;2023-04-03T13:47:45;4.07;;;1.00;;
25567;SDS011;13455;51.480;7.594;2023-04-03T13:52:49;3.53;;;1.10;;
25567;SDS011;13455;51.480;7.594;2023-04-03T13:55:23;3.47;;;1.10;;
25567;SDS011;13455;51.480;7.594;2023-04-03T13:57:54;4.88;;;1.30;;
25567;SDS011;13455;51.480;7.594;2023-04-03T14:00:25;3.58;;;1.05;;
25567;SDS011;13455;51.480;7.594;2023-04-03T14:02:54;3.00;;;1.17;;
25567;SDS011;13455;51.480;7.594;2023-04-03T14:05:21;3.58;;;1.20;;
25567;SDS011;13455;51.480;7.594;2023-04-03T14:07:49;3.67;;;1.05;;
25567;SDS011;13455;51.480;7.594;2023-04-03T14:10:16;3.35;;;0.95;;
25567;SDS011;13455;51.480;7.594;2023-04-03T14:12:42;2.80;;;0.98;;
25567;SDS011;13455;51.480;7.594;2023-04-03T14:15:18;2.90;;;1.00;;
25567;SDS011;13455;51.480;7.594;2023-04-03T14:17:44;3.05;;;1.10;;
25567;SDS011;13455;51.480;7.594;2023-04-03T14:20:16;3.53;;;1.13;;
25567;SDS011;13455;51.480;7.594;2023-04-03T14:22:42;3.47;;;1.20;;
25567;SDS011;13455;51.480;7.594;2023-04-03T14:25:09;2.97;;;0.93;;
25567;SDS011;13455;51.480;7.594;2023-04-03T14:27:37;3.33;;;1.00;;
25567;SDS011;13455;51.480;7.594;2023-04-03T14:30:06;4.50;;;1.20;;
25567;SDS011;13455;51.480;7.594;2023-04-03T14:32:33;3.85;;;1.10;;
25567;SDS011;13455;51.480;7.594;2023-04-03T14:34:59;2.78;;;1.10;;
25567;SDS011;13455;51.480;7.594;2023-04-03T14:37:27;2.95;;;1.15;;
25567;SDS011;13455;51.480;7.594;2023-04-03T14:39:55;3.45;;;1.20;;
25567;SDS011;13455;51.480;7.594;2023-04-03T14:42:23;4.60;;;1.27;;
25567;SDS011;13455;51.480;7.594;2023-04-03T14:44:49;3.63;;;1.30;;
25567;SDS011;13455;51.480;7.594;2023-04-03T14:47:17;3.40;;;1.10;;
25567;SDS011;13455;51.480;7.594;2023-04-03T14:49:44;3.47;;;1.10;;
25567;SDS011;13455;51.480;7.594;2023-04-03T14:52:29;3.17;;;1.30;;
25567;SDS011;13455;51.480;7.594;2023-04-03T14:54:56;3.25;;;1.20;;
25567;SDS011;13455;51.480;7.594;2023-04-03T14:57:23;5.28;;;1.10;;
25567;SDS011;13455;51.480;7.594;2023-04-03T14:59:50;3.28;;;1.10;;
25567;SDS011;13455;51.480;7.594;2023-04-03T15:02:24;3.80;;;1.30;;
25567;SDS011;13455;51.480;7.594;2023-04-03T15:04:51;3.10;;;1.20;;
25567;SDS011;13455;51.480;7.594;2023-04-03T15:07:17;3.85;;;1.23;;
25567;SDS011;13455;51.480;7.594;2023-04-03T15:09:42;2.78;;;1.17;;
25567;SDS011;13455;51.480;7.594;2023-04-03T15:12:08;3.93;;;1.20;;
25567;SDS011;13455;51.480;7.594;2023-04-03T15:14:35;2.97;;;1.10;;
25567;SDS011;13455;51.480;7.594;2023-04-03T15:17:00;3.20;;;1.20;;
25567;SDS011;13455;51.480;7.594;2023-04-03T15:19:27;3.67;;;1.60;;
25567;SDS011;13455;51.480;7.594;2023-04-03T15:21:52;5.17;;;1.57;;
25567;SDS011;13455;51.480;7.594;2023-04-03T15:24:18;5.00;;;1.60;;
25567;SDS011;13455;51.480;7.594;2023-04-03T15:26:43;4.13;;;1.50;;
25567;SDS011;13455;51.480;7.594;2023-04-03T15:29:09;3.87;;;1.23;;
25567;SDS011;13455;51.480;7.594;2023-04-03T15:31:35;3.60;;;1.30;;
25567;SDS011;13455;51.480;7.594;2023-04-03T15:34:02;4.33;;;1.40;;
25567;SDS011;13455;51.480;7.594;2023-04-03T15:36:28;4.78;;;1.40;;
25567;SDS011;13455;51.480;7.594;2023-04-03T15:38:54;4.00;;;1.40;;
25567;SDS011;13455;51.480;7.594;2023-04-03T15:41:20;4.55;;;1.50;;
25567;SDS011;13455;51.480;7.594;2023-04-03T15:43:46;3.50;;;1.30;;
25567;SDS011;13455;51.480;7.594;2023-04-03T15:46:11;3.13;;;1.20;;
25567;SDS011;13455;51.480;7.594;2023-04-03T15:48:38;4.03;;;1.40;;
25567;SDS011;13455;51.480;7.594;2023-04-03T15:51:05;5.07;;;1.80;;
25567;SDS011;13455;51.480;7.594;2023-04-03T15:53:31;5.10;;;1.33;;
25567;SDS011;13455;51.480;7.594;2023-04-03T15:55:57;3.70;;;1.20;;
25567;SDS011;13455;51.480;7.594;2023-04-03T15:58:22;4.32;;;1.60;;
25567;SDS011;13455;51.480;7.594;2023-04-03T16:00:48;3.47;;;1.40;;
25567;SDS011;13455;51.480;7.594;2023-04-03T16:03:18;4.13;;;1.30;;
25567;SDS011;13455;51.480;7.594;2023-04-03T16:05:45;4.47;;;1.40;;
25567;SDS011;13455;51.480;7.594;2023-04-03T16:08:11;3.88;;;1.30;;
25567;SDS011;13455;51.480;7.594;2023-04-03T16:10:37;3.47;;;1.20;;
25567;SDS011;13455;51.480;7.594;2023-04-03T16:13:04;3.47;;;1.10;;
25567;SDS011;13455;51.480;7.594;2023-04-03T16:15:30;2.58;;;1.20;;
25567;SDS011;13455;51.480;7.594;2023-04-03T16:17:57;3.03;;;1.23;;
25567;SDS011;13455;51.480;7.594;2023-04-03T16:20:24;2.60;;;1.10;;
25567;SDS011;13455;51.480;7.594;2023-04-03T16:22:50;4.53;;;1.20;;
25567;SDS011;13455;51.480;7.594;2023-04-03T16:25:16;3.47;;;1.05;;
25567;SDS011;13455;51.480;7.594;2023-04-03T16:27:43;3.33;;;1.20;;
25567;SDS011;13455;51.480;7.594;2023-04-03T16:30:09;3.50;;;1.23;;
25567;SDS011;13455;51.480;7.594;2023-04-03T16:32:35;3.25;;;1.30;;
25567;SDS011;13455;51.480;7.594;2023-04-03T16:35:02;3.60;;;1.30;;
25567;SDS011;13455;51.480;7.594;2023-04-03T16:37:28;4.40;;;1.30;;
25567;SDS011;13455;51.480;7.594;2023-04-03T16:39:54;3.93;;;1.20;;
25567;SDS011;13455;51.480;7.594;2023-04-03T16:42:20;3.33;;;1.30;;
25567;SDS011;13455;51.480;7.594;2023-04-03T16:44:45;3.00;;;1.23;;
25567;SDS011;13455;51.480;7.594;2023-04-03T16:47:11;3.53;;;1.20;;
25567;SDS011;13455;51.480;7.594;2023-04-03T16:49:38;3.80;;;1.20;;
25567;SDS011;13455;51.480;7.594;2023-04-03T16:52:04;2.83;;;1.17;;
25567;SDS011;13455;51.480;7.594;2023-04-03T16:54:30;3.30;;;1.30;;
25567;SDS011;13455;51.480;7.594;2023-04-03T16:56:57;3.13;;;1.30;;
25567;SDS011;13455;51.480;7.594;2023-04-03T16:59:23;4.67;;;1.23;;
25567;SDS011;13455;51.480;7.594;2023-04-03T17:01:48;4.10;;;1.10;;
25567;SDS011;13455;51.480;7.594;2023-04-03T17:04:14;3.53;;;1.23;;